sensor_id;sensor_type;location;lat;lon;timestamp;temperature;humidity
34406;DHT22;20658;45.630;8.886;2023-05-07T00:00:06;19.30;68.90
34406;DHT22;20658;45.630;8.886;2023-05-07T00:02:42;19.20;68.90
34406;DHT22;20658;45.630;8.886;2023-05-07T00:05:16;19.30;69.10
34406;DHT22;20658;45.630;8.886;2023-05-07T00:07:44;19.30;69.00
34406;DHT22;20658;45.630;8.886;2023-05-07T00:10:13;19.30;68.90
34406;DHT22;20658;45.630;8.886;2023-05-07T00:12:46;19.30;68.70
34406;DHT22;20658;45.630;8.886;2023-05-07T00:15:20;19.30;68.20
34406;DHT22;20658;45.630;8.886;2023-05-07T00:17:55;19.30;68.00
34406;DHT22;20658;45.630;8.886;2023-05-07T00:20:30;19.30;68.10
34406;DHT22;20658;45.630;8.886;2023-05-07T00:22:58;19.40;67.90
34406;DHT22;20658;45.630;8.886;2023-05-07T00:25:32;19.40;67.80
34406;DHT22;20658;45.630;8.886;2023-05-07T00:28:05;19.40;68.20
34406;DHT22;20658;45.630;8.886;2023-05-07T00:30:33;19.40;67.90
34406;DHT22;20658;45.630;8.886;2023-05-07T00:33:03;19.40;67.60
34406;DHT22;20658;45.630;8.886;2023-05-07T00:35:37;19.40;67.40
34406;DHT22;20658;45.630;8.886;2023-05-07T00:38:05;19.40;67.30
34406;DHT22;20658;45.630;8.886;2023-05-07T00:40:33;19.40;67.20
34406;DHT22;20658;45.630;8.886;2023-05-07T00:43:02;19.40;66.90
34406;DHT22;20658;45.630;8.886;2023-05-07T00:45:35;19.30;67.10
34406;DHT22;20658;45.630;8.886;2023-05-07T00:48:10;19.30;66.90
34406;DHT22;20658;45.630;8.886;2023-05-07T00:50:44;19.30;66.90
34406;DHT22;20658;45.630;8.886;2023-05-07T00:53:18;19.30;67.20
34406;DHT22;20658;45.630;8.886;2023-05-07T00:55:47;19.20;67.80
34406;DHT22;20658;45.630;8.886;2023-05-07T00:58:21;19.00;69.40
34406;DHT22;20658;45.630;8.886;2023-05-07T01:00:54;18.90;73.20
34406;DHT22;20658;45.630;8.886;2023-05-07T01:03:24;18.60;76.00
34406;DHT22;20658;45.630;8.886;2023-05-07T01:05:53;18.40;77.40
34406;DHT22;20658;45.630;8.886;2023-05-07T01:08:28;18.40;79.80
34406;DHT22;20658;45.630;8.886;2023-05-07T01:11:02;18.10;81.20
34406;DHT22;20658;45.630;8.886;2023-05-07T01:13:31;17.90;83.70
34406;DHT22;20658;45.630;8.886;2023-05-07T01:15:59;17.60;87.20
34406;DHT22;20658;45.630;8.886;2023-05-07T01:18:34;17.30;90.20
34406;DHT22;20658;45.630;8.886;2023-05-07T01:21:11;16.90;92.30
34406;DHT22;20658;45.630;8.886;2023-05-07T01:23:47;16.90;93.60
34406;DHT22;20658;45.630;8.886;2023-05-07T01:26:16;16.70;95.40
34406;DHT22;20658;45.630;8.886;2023-05-07T01:28:46;16.70;96.40
34406;DHT22;20658;45.630;8.886;2023-05-07T01:31:16;16.80;97.20
34406;DHT22;20658;45.630;8.886;2023-05-07T01:33:48;16.60;97.90
34406;DHT22;20658;45.630;8.886;2023-05-07T01:36:19;16.60;98.70
34406;DHT22;20658;45.630;8.886;2023-05-07T01:38:51;16.50;99.40
34406;DHT22;20658;45.630;8.886;2023-05-07T01:41:20;16.50;99.90
34406;DHT22;20658;45.630;8.886;2023-05-07T01:43:50;16.50;99.90
34406;DHT22;20658;45.630;8.886;2023-05-07T01:46:20;16.40;99.90
34406;DHT22;20658;45.630;8.886;2023-05-07T01:48:50;16.40;99.90
34406;DHT22;20658;45.630;8.886;2023-05-07T01:51:18;16.50;99.90
34406;DHT22;20658;45.630;8.886;2023-05-07T01:53:48;16.20;99.90
34406;DHT22;20658;45.630;8.886;2023-05-07T01:56:20;16.10;99.90
34406;DHT22;20658;45.630;8.886;2023-05-07T01:58:49;16.00;99.90
34406;DHT22;20658;45.630;8.886;2023-05-07T02:01:19;16.00;99.90
34406;DHT22;20658;45.630;8.886;2023-05-07T02:03:48;16.10;99.90
34406;DHT22;20658;45.630;8.886;2023-05-07T02:06:22;15.90;99.90
34406;DHT22;20658;45.630;8.886;2023-05-07T02:08:55;15.90;99.90
34406;DHT22;20658;45.630;8.886;2023-05-07T02:11:28;15.80;99.90
34406;DHT22;20658;45.630;8.886;2023-05-07T02:13:58;15.80;99.90
34406;DHT22;20658;45.630;8.886;2023-05-07T02:16:26;16.00;99.90
34406;DHT22;20658;45.630;8.886;2023-05-07T02:18:55;16.00;99.90
34406;DHT22;20658;45.630;8.886;2023-05-07T02:21:23;16.10;99.90
34406;DHT22;20658;45.630;8.886;2023-05-07T02:23:52;15.80;99.90
34406;DHT22;20658;45.630;8.886;2023-05-07T02:26:21;15.80;99.90
34406;DHT22;20658;45.630;8.886;2023-05-07T02:28:51;15.80;99.90
34406;DHT22;20658;45.630;8.886;2023-05-07T02:31:20;15.70;99.90
34406;DHT22;20658;45.630;8.886;2023-05-07T02:33:53;15.80;99.90
34406;DHT22;20658;45.630;8.886;2023-05-07T02:36:27;15.70;99.90
34406;DHT22;20658;45.630;8.886;2023-05-07T02:39:02;15.90;99.90
34406;DHT22;20658;45.630;8.886;2023-05-07T02:41:31;15.80;99.90
34406;DHT22;20658;45.630;8.886;2023-05-07T02:44:01;15.80;99.90
34406;DHT22;20658;45.630;8.886;2023-05-07T02:46:34;15.80;99.90
34406;DHT22;20658;45.630;8.886;2023-05-07T02:49:11;15.70;99.90
34406;DHT22;20658;45.630;8.886;2023-05-07T02:51:44;15.90;99.90
34406;DHT22;20658;45.630;8.886;2023-05-07T02:54:21;15.70;99.90
34406;DHT22;20658;45.630;8.886;2023-05-07T02:56:50;15.70;99.90
34406;DHT22;20658;45.630;8.886;2023-05-07T02:59:19;15.60;99.90
34406;DHT22;20658;45.630;8.886;2023-05-07T03:01:53;15.50;99.90
34406;DHT22;20658;45.630;8.886;2023-05-07T03:04:22;15.40;99.90
34406;DHT22;20658;45.630;8.886;2023-05-07T03:06:50;15.40;99.90
34406;DHT22;20658;45.630;8.886;2023-05-07T03:09:18;15.70;99.90
34406;DHT22;20658;45.630;8.886;2023-05-07T03:11:47;15.30;99.90
34406;DHT22;20658;45.630;8.886;2023-05-07T03:14:15;15.40;99.90
34406;DHT22;20658;45.630;8.886;2023-05-07T03:16:45;15.40;99.90
34406;DHT22;20658;45.630;8.886;2023-05-07T03:19:19;15.40;99.90
34406;DHT22;20658;45.630;8.886;2023-05-07T03:21:52;15.40;99.90
34406;DHT22;20658;45.630;8.886;2023-05-07T03:24:20;15.40;99.90
34406;DHT22;20658;45.630;8.886;2023-05-07T03:26:54;15.40;99.90
34406;DHT22;20658;45.630;8.886;2023-05-07T03:29:29;15.40;99.90
34406;DHT22;20658;45.630;8.886;2023-05-07T03:32:04;15.40;99.90
34406;DHT22;20658;45.630;8.886;2023-05-07T03:34:39;15.40;99.90
34406;DHT22;20658;45.630;8.886;2023-05-07T03:37:13;15.40;99.90
34406;DHT22;20658;45.630;8.886;2023-05-07T03:39:42;15.50;99.90
34406;DHT22;20658;45.630;8.886;2023-05-07T03:42:16;15.60;99.90
34406;DHT22;20658;45.630;8.886;2023-05-07T03:44:51;15.50;99.90
34406;DHT22;20658;45.630;8.886;2023-05-07T03:47:26;15.60;99.90
34406;DHT22;20658;45.630;8.886;2023-05-07T03:50:00;15.40;99.90
34406;DHT22;20658;45.630;8.886;2023-05-07T03:52:28;15.40;99.90
34406;DHT22;20658;45.630;8.886;2023-05-07T03:55:00;15.40;99.90
34406;DHT22;20658;45.630;8.886;2023-05-07T03:57:36;15.40;99.90
34406;DHT22;20658;45.630;8.886;2023-05-07T04:00:05;15.40;99.90
34406;DHT22;20658;45.630;8.886;2023-05-07T04:02:47;15.40;99.90
34406;DHT22;20658;45.630;8.886;2023-05-07T04:05:23;15.30;99.90
34406;DHT22;20658;45.630;8.886;2023-05-07T04:07:57;15.30;99.90
34406;DHT22;20658;45.630;8.886;2023-05-07T04:10:37;15.30;99.90
34406;DHT22;20658;45.630;8.886;2023-05-07T04:13:11;15.30;99.90
34406;DHT22;20658;45.630;8.886;2023-05-07T04:15:45;15.30;99.90
34406;DHT22;20658;45.630;8.886;2023-05-07T04:18:22;15.30;99.90
34406;DHT22;20658;45.630;8.886;2023-05-07T04:20:55;15.40;99.90
34406;DHT22;20658;45.630;8.886;2023-05-07T04:23:23;15.40;99.90
34406;DHT22;20658;45.630;8.886;2023-05-07T04:26:01;15.30;99.90
34406;DHT22;20658;45.630;8.886;2023-05-07T04:28:35;15.30;99.90
34406;DHT22;20658;45.630;8.886;2023-05-07T04:31:04;15.30;99.90
34406;DHT22;20658;45.630;8.886;2023-05-07T04:33:36;15.30;99.90
34406;DHT22;20658;45.630;8.886;2023-05-07T04:36:07;15.40;99.90
34406;DHT22;20658;45.630;8.886;2023-05-07T04:38:43;15.40;99.90
34406;DHT22;20658;45.630;8.886;2023-05-07T04:41:13;15.60;99.90
34406;DHT22;20658;45.630;8.886;2023-05-07T04:43:42;15.40;99.90
34406;DHT22;20658;45.630;8.886;2023-05-07T04:46:17;15.40;99.90
34406;DHT22;20658;45.630;8.886;2023-05-07T04:48:48;15.30;99.90
34406;DHT22;20658;45.630;8.886;2023-05-07T04:51:21;15.30;99.90
34406;DHT22;20658;45.630;8.886;2023-05-07T04:53:54;15.30;99.90
34406;DHT22;20658;45.630;8.886;2023-05-07T04:56:24;15.30;99.90
34406;DHT22;20658;45.630;8.886;2023-05-07T04:58:58;15.50;99.90
34406;DHT22;20658;45.630;8.886;2023-05-07T05:01:27;15.30;99.90
34406;DHT22;20658;45.630;8.886;2023-05-07T05:03:58;15.40;99.90
34406;DHT22;20658;45.630;8.886;2023-05-07T05:06:27;15.40;99.90
34406;DHT22;20658;45.630;8.886;2023-05-07T05:08:55;15.50;99.90
34406;DHT22;20658;45.630;8.886;2023-05-07T05:11:24;15.70;99.90
34406;DHT22;20658;45.630;8.886;2023-05-07T05:13:59;15.80;99.90
34406;DHT22;20658;45.630;8.886;2023-05-07T05:16:29;15.70;99.90
34406;DHT22;20658;45.630;8.886;2023-05-07T05:19:03;15.80;99.90
34406;DHT22;20658;45.630;8.886;2023-05-07T05:21:35;15.90;99.90
34406;DHT22;20658;45.630;8.886;2023-05-07T05:24:07;16.10;99.90
34406;DHT22;20658;45.630;8.886;2023-05-07T05:26:41;16.00;99.90
34406;DHT22;20658;45.630;8.886;2023-05-07T05:29:10;16.00;99.90
34406;DHT22;20658;45.630;8.886;2023-05-07T05:31:41;16.00;99.90
34406;DHT22;20658;45.630;8.886;2023-05-07T05:34:11;16.00;99.90
34406;DHT22;20658;45.630;8.886;2023-05-07T05:36:45;16.00;99.90
34406;DHT22;20658;45.630;8.886;2023-05-07T05:39:14;16.10;99.90
34406;DHT22;20658;45.630;8.886;2023-05-07T05:41:48;16.30;99.90
34406;DHT22;20658;45.630;8.886;2023-05-07T05:44:22;16.40;99.90
34406;DHT22;20658;45.630;8.886;2023-05-07T05:46:50;16.40;99.90
34406;DHT22;20658;45.630;8.886;2023-05-07T05:49:28;16.60;99.90
34406;DHT22;20658;45.630;8.886;2023-05-07T05:52:03;16.60;99.90
34406;DHT22;20658;45.630;8.886;2023-05-07T05:54:37;16.60;99.90
34406;DHT22;20658;45.630;8.886;2023-05-07T05:57:10;16.50;99.90
34406;DHT22;20658;45.630;8.886;2023-05-07T05:59:45;16.70;99.90
34406;DHT22;20658;45.630;8.886;2023-05-07T06:02:19;16.40;99.90
34406;DHT22;20658;45.630;8.886;2023-05-07T06:04:53;16.50;99.90
34406;DHT22;20658;45.630;8.886;2023-05-07T06:07:22;16.50;99.90
34406;DHT22;20658;45.630;8.886;2023-05-07T06:09:56;16.50;99.90
34406;DHT22;20658;45.630;8.886;2023-05-07T06:12:31;16.40;99.90
34406;DHT22;20658;45.630;8.886;2023-05-07T06:15:05;16.60;99.90
34406;DHT22;20658;45.630;8.886;2023-05-07T06:17:40;16.40;99.90
34406;DHT22;20658;45.630;8.886;2023-05-07T06:20:15;16.40;99.90
34406;DHT22;20658;45.630;8.886;2023-05-07T06:22:49;16.40;99.90
34406;DHT22;20658;45.630;8.886;2023-05-07T06:25:18;16.40;99.90
34406;DHT22;20658;45.630;8.886;2023-05-07T06:27:51;16.50;99.90
34406;DHT22;20658;45.630;8.886;2023-05-07T06:30:25;16.90;99.90
34406;DHT22;20658;45.630;8.886;2023-05-07T06:32:59;17.00;99.90
34406;DHT22;20658;45.630;8.886;2023-05-07T06:35:34;17.20;99.90
34406;DHT22;20658;45.630;8.886;2023-05-07T06:38:07;17.50;99.90
34406;DHT22;20658;45.630;8.886;2023-05-07T06:40:42;17.80;99.90
34406;DHT22;20658;45.630;8.886;2023-05-07T06:43:15;18.00;99.90
34406;DHT22;20658;45.630;8.886;2023-05-07T06:46:11;18.30;99.80
34406;DHT22;20658;45.630;8.886;2023-05-07T06:48:49;18.40;97.40
34406;DHT22;20658;45.630;8.886;2023-05-07T06:51:24;18.60;97.20
34406;DHT22;20658;45.630;8.886;2023-05-07T06:54:02;18.90;95.70
34406;DHT22;20658;45.630;8.886;2023-05-07T06:56:38;18.90;94.80
34406;DHT22;20658;45.630;8.886;2023-05-07T06:59:07;19.00;93.40
34406;DHT22;20658;45.630;8.886;2023-05-07T07:01:41;19.20;92.60
34406;DHT22;20658;45.630;8.886;2023-05-07T07:04:16;19.30;92.50
34406;DHT22;20658;45.630;8.886;2023-05-07T07:06:59;19.40;90.10
34406;DHT22;20658;45.630;8.886;2023-05-07T07:09:32;19.40;89.10
34406;DHT22;20658;45.630;8.886;2023-05-07T07:12:07;19.60;89.80
34406;DHT22;20658;45.630;8.886;2023-05-07T07:14:42;19.50;89.80
34406;DHT22;20658;45.630;8.886;2023-05-07T07:17:15;19.40;88.90
34406;DHT22;20658;45.630;8.886;2023-05-07T07:19:48;19.30;90.60
34406;DHT22;20658;45.630;8.886;2023-05-07T07:22:23;19.70;90.20
34406;DHT22;20658;45.630;8.886;2023-05-07T07:24:57;20.10;89.10
34406;DHT22;20658;45.630;8.886;2023-05-07T07:27:30;20.70;86.90
34406;DHT22;20658;45.630;8.886;2023-05-07T07:30:07;20.90;84.90
34406;DHT22;20658;45.630;8.886;2023-05-07T07:32:45;21.00;83.10
34406;DHT22;20658;45.630;8.886;2023-05-07T07:35:19;21.20;81.40
34406;DHT22;20658;45.630;8.886;2023-05-07T07:37:53;21.20;82.80
34406;DHT22;20658;45.630;8.886;2023-05-07T07:40:27;21.30;82.70
34406;DHT22;20658;45.630;8.886;2023-05-07T07:43:00;21.40;83.30
34406;DHT22;20658;45.630;8.886;2023-05-07T07:45:34;21.10;82.60
34406;DHT22;20658;45.630;8.886;2023-05-07T07:48:08;21.10;84.00
34406;DHT22;20658;45.630;8.886;2023-05-07T07:50:41;21.00;83.70
34406;DHT22;20658;45.630;8.886;2023-05-07T07:53:17;21.10;83.20
34406;DHT22;20658;45.630;8.886;2023-05-07T07:55:45;21.10;81.80
34406;DHT22;20658;45.630;8.886;2023-05-07T07:58:21;21.10;82.60
34406;DHT22;20658;45.630;8.886;2023-05-07T08:00:57;21.10;83.30
34406;DHT22;20658;45.630;8.886;2023-05-07T08:03:30;21.00;83.10
34406;DHT22;20658;45.630;8.886;2023-05-07T08:06:06;20.80;83.10
34406;DHT22;20658;45.630;8.886;2023-05-07T08:08:41;21.00;82.60
34406;DHT22;20658;45.630;8.886;2023-05-07T08:11:16;20.90;81.20
34406;DHT22;20658;45.630;8.886;2023-05-07T08:13:51;21.20;80.80
34406;DHT22;20658;45.630;8.886;2023-05-07T08:16:25;21.20;82.20
34406;DHT22;20658;45.630;8.886;2023-05-07T08:19:00;21.40;81.90
34406;DHT22;20658;45.630;8.886;2023-05-07T08:21:34;21.70;81.40
34406;DHT22;20658;45.630;8.886;2023-05-07T08:24:13;22.00;80.60
34406;DHT22;20658;45.630;8.886;2023-05-07T08:26:47;21.90;78.60
34406;DHT22;20658;45.630;8.886;2023-05-07T08:29:21;22.00;78.10
34406;DHT22;20658;45.630;8.886;2023-05-07T08:31:54;21.90;79.00
34406;DHT22;20658;45.630;8.886;2023-05-07T08:34:28;22.30;79.60
34406;DHT22;20658;45.630;8.886;2023-05-07T08:37:03;22.60;79.10
34406;DHT22;20658;45.630;8.886;2023-05-07T08:39:38;22.70;77.70
34406;DHT22;20658;45.630;8.886;2023-05-07T08:42:17;22.80;77.50
34406;DHT22;20658;45.630;8.886;2023-05-07T08:44:51;22.60;78.00
34406;DHT22;20658;45.630;8.886;2023-05-07T08:47:32;22.60;77.80
34406;DHT22;20658;45.630;8.886;2023-05-07T08:50:08;22.70;79.10
34406;DHT22;20658;45.630;8.886;2023-05-07T08:52:43;22.90;78.90
34406;DHT22;20658;45.630;8.886;2023-05-07T08:55:20;23.00;78.70
34406;DHT22;20658;45.630;8.886;2023-05-07T08:57:53;23.00;79.00
34406;DHT22;20658;45.630;8.886;2023-05-07T09:00:29;23.20;78.40
34406;DHT22;20658;45.630;8.886;2023-05-07T09:03:02;23.30;78.40
34406;DHT22;20658;45.630;8.886;2023-05-07T09:05:36;23.50;77.80
34406;DHT22;20658;45.630;8.886;2023-05-07T09:08:15;23.40;77.60
34406;DHT22;20658;45.630;8.886;2023-05-07T09:10:50;23.50;77.10
34406;DHT22;20658;45.630;8.886;2023-05-07T09:13:24;23.50;76.60
34406;DHT22;20658;45.630;8.886;2023-05-07T09:16:10;23.40;77.60
34406;DHT22;20658;45.630;8.886;2023-05-07T09:18:41;23.30;75.70
34406;DHT22;20658;45.630;8.886;2023-05-07T09:21:15;23.70;75.80
34406;DHT22;20658;45.630;8.886;2023-05-07T09:23:51;23.50;74.90
34406;DHT22;20658;45.630;8.886;2023-05-07T09:26:35;23.50;74.60
34406;DHT22;20658;45.630;8.886;2023-05-07T09:29:10;23.60;72.30
34406;DHT22;20658;45.630;8.886;2023-05-07T09:31:43;23.60;73.30
34406;DHT22;20658;45.630;8.886;2023-05-07T09:34:18;23.60;72.00
34406;DHT22;20658;45.630;8.886;2023-05-07T09:36:51;23.30;71.10
34406;DHT22;20658;45.630;8.886;2023-05-07T09:39:25;23.20;71.20
34406;DHT22;20658;45.630;8.886;2023-05-07T09:42:00;23.20;69.90
34406;DHT22;20658;45.630;8.886;2023-05-07T09:44:33;23.20;69.00
34406;DHT22;20658;45.630;8.886;2023-05-07T09:47:11;23.20;67.40
34406;DHT22;20658;45.630;8.886;2023-05-07T09:49:56;23.10;67.40
34406;DHT22;20658;45.630;8.886;2023-05-07T09:52:30;23.00;65.60
34406;DHT22;20658;45.630;8.886;2023-05-07T09:55:08;23.00;67.70
34406;DHT22;20658;45.630;8.886;2023-05-07T09:57:45;23.30;66.40
34406;DHT22;20658;45.630;8.886;2023-05-07T10:00:20;23.30;67.60
34406;DHT22;20658;45.630;8.886;2023-05-07T10:03:03;23.50;66.50
34406;DHT22;20658;45.630;8.886;2023-05-07T10:05:46;23.50;66.00
34406;DHT22;20658;45.630;8.886;2023-05-07T10:08:21;23.50;64.10
34406;DHT22;20658;45.630;8.886;2023-05-07T10:10:57;23.70;63.70
34406;DHT22;20658;45.630;8.886;2023-05-07T10:13:34;24.00;62.50
34406;DHT22;20658;45.630;8.886;2023-05-07T10:16:09;24.50;59.20
34406;DHT22;20658;45.630;8.886;2023-05-07T10:18:43;24.50;60.30
34406;DHT22;20658;45.630;8.886;2023-05-07T10:21:19;24.90;61.10
34406;DHT22;20658;45.630;8.886;2023-05-07T10:23:59;24.70;59.10
34406;DHT22;20658;45.630;8.886;2023-05-07T10:26:37;24.70;59.20
34406;DHT22;20658;45.630;8.886;2023-05-07T10:29:18;24.30;58.60
34406;DHT22;20658;45.630;8.886;2023-05-07T10:32:04;24.30;58.50
34406;DHT22;20658;45.630;8.886;2023-05-07T10:34:48;24.50;59.10
34406;DHT22;20658;45.630;8.886;2023-05-07T10:37:24;25.20;57.00
34406;DHT22;20658;45.630;8.886;2023-05-07T10:39:57;25.50;56.80
34406;DHT22;20658;45.630;8.886;2023-05-07T10:42:31;25.60;56.90
34406;DHT22;20658;45.630;8.886;2023-05-07T10:45:13;25.20;58.60
34406;DHT22;20658;45.630;8.886;2023-05-07T10:48:07;25.20;58.10
34406;DHT22;20658;45.630;8.886;2023-05-07T10:50:46;25.10;58.40
34406;DHT22;20658;45.630;8.886;2023-05-07T10:53:23;25.40;58.90
34406;DHT22;20658;45.630;8.886;2023-05-07T10:59:40;25.50;56.30
34406;DHT22;20658;45.630;8.886;2023-05-07T11:06:08;25.50;56.30
34406;DHT22;20658;45.630;8.886;2023-05-07T11:09:01;25.70;55.10
34406;DHT22;20658;45.630;8.886;2023-05-07T11:11:46;25.70;53.80
34406;DHT22;20658;45.630;8.886;2023-05-07T11:14:45;25.80;52.70
34406;DHT22;20658;45.630;8.886;2023-05-07T11:17:26;25.60;52.60
34406;DHT22;20658;45.630;8.886;2023-05-07T11:20:07;25.50;52.20
34406;DHT22;20658;45.630;8.886;2023-05-07T11:22:49;25.50;53.00
34406;DHT22;20658;45.630;8.886;2023-05-07T11:25:27;25.40;54.30
34406;DHT22;20658;45.630;8.886;2023-05-07T11:28:21;25.50;54.00
34406;DHT22;20658;45.630;8.886;2023-05-07T11:31:01;25.80;53.60
34406;DHT22;20658;45.630;8.886;2023-05-07T11:33:38;25.30;53.60
34406;DHT22;20658;45.630;8.886;2023-05-07T11:36:16;25.60;53.80
34406;DHT22;20658;45.630;8.886;2023-05-07T11:38:51;25.80;53.10
34406;DHT22;20658;45.630;8.886;2023-05-07T11:41:33;26.00;52.40
34406;DHT22;20658;45.630;8.886;2023-05-07T11:44:03;26.30;51.90
34406;DHT22;20658;45.630;8.886;2023-05-07T11:46:36;26.60;50.40
34406;DHT22;20658;45.630;8.886;2023-05-07T11:49:11;26.80;48.20
34406;DHT22;20658;45.630;8.886;2023-05-07T11:51:44;27.00;47.80
34406;DHT22;20658;45.630;8.886;2023-05-07T11:54:18;27.10;47.70
34406;DHT22;20658;45.630;8.886;2023-05-07T11:56:49;26.80;47.20
34406;DHT22;20658;45.630;8.886;2023-05-07T11:59:22;26.60;48.00
34406;DHT22;20658;45.630;8.886;2023-05-07T12:01:57;26.80;47.70
34406;DHT22;20658;45.630;8.886;2023-05-07T12:04:32;27.20;46.80
34406;DHT22;20658;45.630;8.886;2023-05-07T12:07:00;27.20;45.40
34406;DHT22;20658;45.630;8.886;2023-05-07T12:09:29;27.30;45.50
34406;DHT22;20658;45.630;8.886;2023-05-07T12:12:06;27.40;44.60
34406;DHT22;20658;45.630;8.886;2023-05-07T12:14:38;27.20;45.80
34406;DHT22;20658;45.630;8.886;2023-05-07T12:17:13;26.80;46.40
34406;DHT22;20658;45.630;8.886;2023-05-07T12:19:48;27.00;47.50
34406;DHT22;20658;45.630;8.886;2023-05-07T12:22:22;27.00;46.50
34406;DHT22;20658;45.630;8.886;2023-05-07T12:24:59;27.20;46.40
34406;DHT22;20658;45.630;8.886;2023-05-07T12:27:27;27.20;46.00
34406;DHT22;20658;45.630;8.886;2023-05-07T12:30:00;27.30;44.90
34406;DHT22;20658;45.630;8.886;2023-05-07T12:32:33;27.30;44.90
34406;DHT22;20658;45.630;8.886;2023-05-07T12:35:10;27.60;45.00
34406;DHT22;20658;45.630;8.886;2023-05-07T12:37:43;27.80;45.00
34406;DHT22;20658;45.630;8.886;2023-05-07T12:40:16;27.70;45.40
34406;DHT22;20658;45.630;8.886;2023-05-07T12:42:53;27.70;45.90
34406;DHT22;20658;45.630;8.886;2023-05-07T12:45:27;27.90;46.40
34406;DHT22;20658;45.630;8.886;2023-05-07T12:47:56;28.00;46.90
34406;DHT22;20658;45.630;8.886;2023-05-07T12:50:34;28.00;45.90
34406;DHT22;20658;45.630;8.886;2023-05-07T12:53:11;28.00;44.70
34406;DHT22;20658;45.630;8.886;2023-05-07T12:55:46;27.90;44.40
34406;DHT22;20658;45.630;8.886;2023-05-07T12:58:20;28.30;45.10
34406;DHT22;20658;45.630;8.886;2023-05-07T13:00:50;29.10;44.50
34406;DHT22;20658;45.630;8.886;2023-05-07T13:03:23;29.10;43.40
34406;DHT22;20658;45.630;8.886;2023-05-07T13:05:54;29.20;42.70
34406;DHT22;20658;45.630;8.886;2023-05-07T13:08:30;29.50;41.60
34406;DHT22;20658;45.630;8.886;2023-05-07T13:11:04;29.30;41.40
34406;DHT22;20658;45.630;8.886;2023-05-07T13:13:40;29.40;41.80
34406;DHT22;20658;45.630;8.886;2023-05-07T13:16:14;28.90;42.50
34406;DHT22;20658;45.630;8.886;2023-05-07T13:18:47;28.30;43.50
34406;DHT22;20658;45.630;8.886;2023-05-07T13:21:22;28.40;43.00
34406;DHT22;20658;45.630;8.886;2023-05-07T13:23:55;28.90;42.20
34406;DHT22;20658;45.630;8.886;2023-05-07T13:26:30;28.80;41.80
34406;DHT22;20658;45.630;8.886;2023-05-07T13:28:59;28.90;41.10
34406;DHT22;20658;45.630;8.886;2023-05-07T13:31:32;29.00;41.90
34406;DHT22;20658;45.630;8.886;2023-05-07T13:34:07;28.80;41.70
34406;DHT22;20658;45.630;8.886;2023-05-07T13:36:41;28.90;42.50
34406;DHT22;20658;45.630;8.886;2023-05-07T13:39:15;29.30;42.60
34406;DHT22;20658;45.630;8.886;2023-05-07T13:41:48;29.40;42.40
34406;DHT22;20658;45.630;8.886;2023-05-07T13:44:23;29.00;41.30
34406;DHT22;20658;45.630;8.886;2023-05-07T13:46:54;28.30;42.90
34406;DHT22;20658;45.630;8.886;2023-05-07T13:49:30;28.40;42.90
34406;DHT22;20658;45.630;8.886;2023-05-07T13:52:05;28.30;43.20
34406;DHT22;20658;45.630;8.886;2023-05-07T13:54:38;28.50;42.90
34406;DHT22;20658;45.630;8.886;2023-05-07T13:57:12;28.90;42.10
34406;DHT22;20658;45.630;8.886;2023-05-07T13:59:40;28.80;41.60
34406;DHT22;20658;45.630;8.886;2023-05-07T14:02:14;28.40;42.60
34406;DHT22;20658;45.630;8.886;2023-05-07T14:04:47;29.00;42.70
34406;DHT22;20658;45.630;8.886;2023-05-07T14:07:17;29.60;41.30
34406;DHT22;20658;45.630;8.886;2023-05-07T14:09:50;29.70;40.60
34406;DHT22;20658;45.630;8.886;2023-05-07T14:12:24;29.20;41.00
34406;DHT22;20658;45.630;8.886;2023-05-07T14:14:57;29.10;41.70
34406;DHT22;20658;45.630;8.886;2023-05-07T14:17:30;28.80;41.50
34406;DHT22;20658;45.630;8.886;2023-05-07T14:20:04;28.90;41.70
34406;DHT22;20658;45.630;8.886;2023-05-07T14:22:40;28.80;41.50
34406;DHT22;20658;45.630;8.886;2023-05-07T14:25:13;29.00;41.90
34406;DHT22;20658;45.630;8.886;2023-05-07T14:27:47;29.20;41.80
34406;DHT22;20658;45.630;8.886;2023-05-07T14:30:16;29.40;41.80
34406;DHT22;20658;45.630;8.886;2023-05-07T14:32:49;29.60;41.20
34406;DHT22;20658;45.630;8.886;2023-05-07T14:35:23;29.60;41.80
34406;DHT22;20658;45.630;8.886;2023-05-07T14:37:58;29.30;41.70
34406;DHT22;20658;45.630;8.886;2023-05-07T14:40:31;29.00;42.10
34406;DHT22;20658;45.630;8.886;2023-05-07T14:43:05;28.90;42.10
34406;DHT22;20658;45.630;8.886;2023-05-07T14:45:39;28.80;41.90
34406;DHT22;20658;45.630;8.886;2023-05-07T14:48:16;28.70;42.70
34406;DHT22;20658;45.630;8.886;2023-05-07T14:50:49;28.70;42.90
34406;DHT22;20658;45.630;8.886;2023-05-07T14:53:24;28.80;42.90
34406;DHT22;20658;45.630;8.886;2023-05-07T14:55:57;28.60;42.20
34406;DHT22;20658;45.630;8.886;2023-05-07T14:58:31;28.70;42.60
34406;DHT22;20658;45.630;8.886;2023-05-07T15:01:05;28.70;42.90
34406;DHT22;20658;45.630;8.886;2023-05-07T15:03:38;29.20;41.50
34406;DHT22;20658;45.630;8.886;2023-05-07T15:06:12;28.90;41.10
34406;DHT22;20658;45.630;8.886;2023-05-07T15:08:46;28.60;42.00
34406;DHT22;20658;45.630;8.886;2023-05-07T15:11:20;28.70;42.70
34406;DHT22;20658;45.630;8.886;2023-05-07T15:13:53;28.30;42.40
34406;DHT22;20658;45.630;8.886;2023-05-07T15:16:26;27.90;42.90
34406;DHT22;20658;45.630;8.886;2023-05-07T15:19:00;27.60;43.60
34406;DHT22;20658;45.630;8.886;2023-05-07T15:21:33;27.60;43.70
34406;DHT22;20658;45.630;8.886;2023-05-07T15:24:09;27.40;43.80
34406;DHT22;20658;45.630;8.886;2023-05-07T15:26:42;27.50;44.20
34406;DHT22;20658;45.630;8.886;2023-05-07T15:29:16;27.50;43.50
34406;DHT22;20658;45.630;8.886;2023-05-07T15:31:49;27.60;43.20
34406;DHT22;20658;45.630;8.886;2023-05-07T15:34:23;27.50;42.50
34406;DHT22;20658;45.630;8.886;2023-05-07T15:36:57;27.60;42.40
34406;DHT22;20658;45.630;8.886;2023-05-07T15:39:32;27.90;42.40
34406;DHT22;20658;45.630;8.886;2023-05-07T15:42:06;28.10;42.50
34406;DHT22;20658;45.630;8.886;2023-05-07T15:44:39;28.00;42.10
34406;DHT22;20658;45.630;8.886;2023-05-07T15:47:13;28.10;41.90
34406;DHT22;20658;45.630;8.886;2023-05-07T15:49:46;28.00;42.00
34406;DHT22;20658;45.630;8.886;2023-05-07T15:52:23;27.90;41.90
34406;DHT22;20658;45.630;8.886;2023-05-07T15:54:58;27.80;41.90
34406;DHT22;20658;45.630;8.886;2023-05-07T15:57:32;27.70;42.20
34406;DHT22;20658;45.630;8.886;2023-05-07T16:00:07;27.40;42.40
34406;DHT22;20658;45.630;8.886;2023-05-07T16:02:43;27.00;42.80
34406;DHT22;20658;45.630;8.886;2023-05-07T16:05:16;26.90;43.10
34406;DHT22;20658;45.630;8.886;2023-05-07T16:07:45;26.90;43.40
34406;DHT22;20658;45.630;8.886;2023-05-07T16:10:19;26.80;43.70
34406;DHT22;20658;45.630;8.886;2023-05-07T16:12:48;26.70;43.70
34406;DHT22;20658;45.630;8.886;2023-05-07T16:15:22;26.50;43.50
34406;DHT22;20658;45.630;8.886;2023-05-07T16:17:56;26.30;44.30